Time;durP1;ratioP1;P1;durP2;ratioP2;P2;SDS_P1;SDS_P2;PMS_P1;PMS_P2;Temp;Humidity;BMP_temperature;BMP_pressure;BME280_temperature;BME280_humidity;BME280_pressure;Samples;Min_cycle;Max_cycle;Signal;HPM_P1;HPM_P2
2023/01/08 00:00:54;;;;;;;6.73;3.90;;;;;;;;;;5032384;28;20238;-79
2023/01/08 00:03:21;;;;;;;5.90;4.23;;;;;;;;;;5032502;28;20230;-79
2023/01/08 00:05:48;;;;;;;5.03;4.50;;;;;;;;;;5032214;28;20608;-79
2023/01/08 00:08:15;;;;;;;4.70;4.30;;;;;;;;;;5032248;28;20275;-79
2023/01/08 00:10:42;;;;;;;4.80;4.20;;;;;;;;;;5032151;28;20226;-79
2023/01/08 00:13:09;;;;;;;4.67;4.20;;;;;;;;;;5031874;28;20203;-79
2023/01/08 00:15:36;;;;;;;4.80;4.40;;;;;;;;;;5031950;28;20235;-79
2023/01/08 00:18:05;;;;;;;6.73;4.53;;;;;;;;;;5032167;28;20217;-79
2023/01/08 00:20:32;;;;;;;7.03;4.17;;;;;;;;;;5031579;28;20233;-79
2023/01/08 00:22:59;;;;;;;5.00;4.50;;;;;;;;;;5031937;28;20558;-79
2023/01/08 00:25:26;;;;;;;5.63;4.80;;;;;;;;;;5031830;28;20230;-79
2023/01/08 00:27:53;;;;;;;5.23;4.73;;;;;;;;;;5032333;28;20230;-79
2023/01/08 00:30:20;;;;;;;4.80;4.27;;;;;;;;;;5031706;28;20234;-79
2023/01/08 00:32:47;;;;;;;5.37;4.40;;;;;;;;;;5032135;28;20215;-79
2023/01/08 00:35:16;;;;;;;9.20;5.07;;;;;;;;;;5031800;28;20214;-79
2023/01/08 00:37:43;;;;;;;5.17;4.67;;;;;;;;;;5032228;28;20207;-79
2023/01/08 00:40:10;;;;;;;6.17;4.80;;;;;;;;;;5031503;28;20706;-80
2023/01/08 00:42:37;;;;;;;6.70;4.17;;;;;;;;;;5031982;28;20710;-79
2023/01/08 00:45:05;;;;;;;4.30;3.90;;;;;;;;;;5031654;28;20210;-80
2023/01/08 00:47:32;;;;;;;5.00;4.00;;;;;;;;;;5032081;28;20226;-79
2023/01/08 00:49:59;;;;;;;3.67;3.37;;;;;;;;;;5054837;23;20226;-81
2023/01/08 00:52:27;;;;;;;4.23;3.83;;;;;;;;;;5043045;28;20209;-80
2023/01/08 00:54:54;;;;;;;4.37;3.80;;;;;;;;;;5051603;28;20205;-80
2023/01/08 00:57:21;;;;;;;5.13;4.23;;;;;;;;;;5051258;28;20390;-80
2023/01/08 00:59:49;;;;;;;4.13;3.73;;;;;;;;;;5051567;28;20234;-80
2023/01/08 01:02:16;;;;;;;4.20;3.80;;;;;;;;;;5046036;28;20226;-80
2023/01/08 01:04:43;;;;;;;4.77;3.93;;;;;;;;;;5031812;28;20209;-80
2023/01/08 01:07:10;;;;;;;6.03;4.30;;;;;;;;;;5031298;28;20235;-80
2023/01/08 01:09:39;;;;;;;4.97;4.17;;;;;;;;;;5031832;28;20261;-80
2023/01/08 01:12:06;;;;;;;9.43;4.17;;;;;;;;;;5030903;28;20242;-80
2023/01/08 01:14:33;;;;;;;4.60;4.17;;;;;;;;;;5031892;28;20209;-80
2023/01/08 01:17:00;;;;;;;4.13;3.73;;;;;;;;;;5031292;28;20235;-79
2023/01/08 01:19:27;;;;;;;4.00;3.70;;;;;;;;;;5031952;28;20261;-80
2023/01/08 01:21:54;;;;;;;6.80;3.93;;;;;;;;;;5031200;28;20242;-80
2023/01/08 01:24:23;;;;;;;5.20;4.30;;;;;;;;;;5032330;28;20210;-80
2023/01/08 01:26:52;;;;;;;5.10;4.60;;;;;;;;;;5034764;28;20238;-80
2023/01/08 01:29:19;;;;;;;4.67;4.17;;;;;;;;;;5035625;28;20238;-80
2023/01/08 01:31:46;;;;;;;4.97;4.00;;;;;;;;;;5035018;28;20245;-80
2023/01/08 01:34:13;;;;;;;4.60;4.10;;;;;;;;;;5035210;28;20546;-80
2023/01/08 01:36:40;;;;;;;4.37;3.90;;;;;;;;;;5035127;28;20230;-80
2023/01/08 01:39:07;;;;;;;4.57;4.13;;;;;;;;;;5035142;28;20227;-80
2023/01/08 01:41:37;;;;;;;4.50;3.83;;;;;;;;;;5034878;28;20230;-80
2023/01/08 01:44:19;;;;;;;5.63;4.20;;;;;;;;;;5035105;28;20213;-80
2023/01/08 01:46:48;;;;;;;5.37;4.07;;;;;;;;;;5034424;28;20238;-80
2023/01/08 01:49:19;;;;;;;4.20;3.80;;;;;;;;;;5035003;28;20239;-80
2023/01/08 01:51:48;;;;;;;4.80;3.97;;;;;;;;;;5034728;28;20234;-80
2023/01/08 01:54:15;;;;;;;4.63;4.13;;;;;;;;;;5034895;28;20211;-80
2023/01/08 01:56:43;;;;;;;4.83;4.33;;;;;;;;;;5034590;28;20238;-80
2023/01/08 01:59:10;;;;;;;5.30;4.10;;;;;;;;;;5034825;28;20234;-80
2023/01/08 02:01:38;;;;;;;4.40;4.00;;;;;;;;;;5034503;28;20246;-80
2023/01/08 02:04:07;;;;;;;4.77;3.90;;;;;;;;;;5041348;28;20255;-80
2023/01/08 02:06:36;;;;;;;3.80;3.50;;;;;;;;;;5050090;28;20658;-79
2023/01/08 02:09:07;;;;;;;5.07;3.80;;;;;;;;;;5027969;28;20222;-79
2023/01/08 02:11:39;;;;;;;4.20;3.80;;;;;;;;;;5034449;28;20245;-80
2023/01/08 02:14:08;;;;;;;4.13;3.50;;;;;;;;;;5034361;28;20682;-80
2023/01/08 02:16:40;;;;;;;3.70;3.40;;;;;;;;;;5034130;28;20706;-80
2023/01/08 02:19:14;;;;;;;4.10;3.70;;;;;;;;;;5034399;28;20739;-80
2023/01/08 02:21:50;;;;;;;3.47;3.27;;;;;;;;;;5034201;28;20288;-79
2023/01/08 02:24:21;;;;;;;3.67;3.37;;;;;;;;;;5034302;28;20214;-80
2023/01/08 02:26:49;;;;;;;3.70;3.37;;;;;;;;;;5045856;28;20709;-79
2023/01/08 02:29:18;;;;;;;5.00;3.90;;;;;;;;;;5053941;28;20287;-79
2023/01/08 02:31:45;;;;;;;4.50;3.53;;;;;;;;;;5053872;28;20259;-80
2023/01/08 02:34:13;;;;;;;3.90;3.60;;;;;;;;;;5053930;28;20259;-80
2023/01/08 02:36:41;;;;;;;4.00;3.43;;;;;;;;;;5053530;28;20234;-80
2023/01/08 02:39:15;;;;;;;4.40;4.00;;;;;;;;;;5054042;28;20627;-80
2023/01/08 02:41:53;;;;;;;5.73;3.50;;;;;;;;;;5053787;28;20327;-80
2023/01/08 02:44:22;;;;;;;4.13;3.73;;;;;;;;;;5054105;28;20210;-80
2023/01/08 02:46:50;;;;;;;7.60;4.07;;;;;;;;;;5053158;28;20234;-80
2023/01/08 02:49:17;;;;;;;4.27;3.87;;;;;;;;;;5053601;28;20261;-80
2023/01/08 02:51:48;;;;;;;5.10;4.10;;;;;;;;;;5053459;28;20320;-80
2023/01/08 02:54:17;;;;;;;4.30;3.97;;;;;;;;;;5053890;28;20214;-80
2023/01/08 02:56:47;;;;;;;5.03;3.47;;;;;;;;;;5052578;28;20721;-80
2023/01/08 02:59:16;;;;;;;5.03;3.90;;;;;;;;;;5053432;28;20303;-79
2023/01/08 03:01:43;;;;;;;6.73;4.13;;;;;;;;;;5051495;28;20264;-80
2023/01/08 03:04:14;;;;;;;4.27;3.73;;;;;;;;;;5033408;28;20584;-80
2023/01/08 03:06:41;;;;;;;5.40;4.60;;;;;;;;;;5033181;28;20238;-80
2023/01/08 03:09:08;;;;;;;4.73;3.73;;;;;;;;;;5033357;28;20419;-80
2023/01/08 03:11:39;;;;;;;4.53;4.10;;;;;;;;;;5033019;28;20237;-80
2023/01/08 03:14:09;;;;;;;4.30;3.90;;;;;;;;;;5033293;28;20211;-80
2023/01/08 03:16:39;;;;;;;6.63;3.67;;;;;;;;;;5033050;28;20238;-80
2023/01/08 03:19:09;;;;;;;4.73;4.03;;;;;;;;;;5033158;28;20226;-80
2023/01/08 03:21:37;;;;;;;4.33;3.70;;;;;;;;;;5032978;28;20234;-80
2023/01/08 03:24:05;;;;;;;4.47;4.07;;;;;;;;;;5033005;28;20589;-80
2023/01/08 03:26:33;;;;;;;4.40;3.97;;;;;;;;;;5032937;28;20234;-80
2023/01/08 03:29:01;;;;;;;13.63;4.40;;;;;;;;;;5033039;28;20285;-80
2023/01/08 03:31:29;;;;;;;3.27;2.97;;;;;;;;;;5032688;28;20269;-80
2023/01/08 03:33:58;;;;;;;4.23;3.83;;;;;;;;;;5032962;28;20257;-80
2023/01/08 03:36:28;;;;;;;3.80;3.23;;;;;;;;;;5032523;28;20238;-80
2023/01/08 03:38:57;;;;;;;3.27;3.07;;;;;;;;;;5032617;28;20210;-80
2023/01/08 03:41:25;;;;;;;5.00;3.80;;;;;;;;;;5032534;28;20237;-80
2023/01/08 03:43:52;;;;;;;5.07;4.20;;;;;;;;;;5032502;28;20215;-80
2023/01/08 03:46:22;;;;;;;3.30;3.10;;;;;;;;;;5032335;28;20604;-81
2023/01/08 03:48:50;;;;;;;3.73;3.23;;;;;;;;;;5032441;28;20565;-81
2023/01/08 03:51:18;;;;;;;4.70;3.73;;;;;;;;;;5032471;28;20321;-80
2023/01/08 03:53:46;;;;;;;4.10;3.80;;;;;;;;;;5032578;28;20293;-80
2023/01/08 03:56:13;;;;;;;6.30;4.07;;;;;;;;;;5032256;28;20246;-81
2023/01/08 03:58:40;;;;;;;5.33;4.67;;;;;;;;;;5032398;28;20231;-80
2023/01/08 04:01:07;;;;;;;5.03;4.27;;;;;;;;;;5032199;28;20234;-81
2023/01/08 04:03:34;;;;;;;4.63;4.17;;;;;;;;;;5032685;28;20210;-80
2023/01/08 04:06:01;;;;;;;4.70;4.17;;;;;;;;;;5031845;28;20698;-80
2023/01/08 04:08:30;;;;;;;3.67;3.37;;;;;;;;;;5032320;28;20230;-80
2023/01/08 04:10:57;;;;;;;5.53;4.10;;;;;;;;;;5031657;28;20242;-80
2023/01/08 04:13:24;;;;;;;4.70;4.30;;;;;;;;;;5032230;28;20211;-80
2023/01/08 04:15:51;;;;;;;4.80;4.40;;;;;;;;;;5031805;28;20230;-81
2023/01/08 04:18:18;;;;;;;3.93;3.60;;;;;;;;;;5032143;28;20214;-80
2023/01/08 04:20:46;;;;;;;4.50;4.10;;;;;;;;;;5031637;28;20241;-81
2023/01/08 04:23:13;;;;;;;4.83;3.90;;;;;;;;;;5031837;28;20252;-80
2023/01/08 04:25:41;;;;;;;4.73;4.23;;;;;;;;;;5031635;28;20611;-81
2023/01/08 04:28:09;;;;;;;5.80;4.47;;;;;;;;;;5031750;28;20226;-80
2023/01/08 04:30:36;;;;;;;4.97;4.20;;;;;;;;;;5031602;28;20241;-81
2023/01/08 04:33:03;;;;;;;4.70;3.77;;;;;;;;;;5031578;28;20210;-80
2023/01/08 04:35:30;;;;;;;4.53;4.13;;;;;;;;;;5031675;28;20239;-81
2023/01/08 04:37:57;;;;;;;4.43;3.97;;;;;;;;;;5032383;28;20555;-80
2023/01/08 04:40:24;;;;;;;4.77;4.27;;;;;;;;;;5031576;28;20234;-81
2023/01/08 04:42:52;;;;;;;5.23;4.50;;;;;;;;;;5031803;28;20217;-80
2023/01/08 04:45:19;;;;;;;4.63;4.23;;;;;;;;;;5031408;28;20845;-81
2023/01/08 04:47:46;;;;;;;4.40;4.00;;;;;;;;;;5031576;28;20213;-81
2023/01/08 04:50:13;;;;;;;6.80;4.60;;;;;;;;;;5030987;28;20242;-80
2023/01/08 04:52:40;;;;;;;5.23;4.47;;;;;;;;;;5031327;28;20215;-81
2023/01/08 04:55:08;;;;;;;7.53;4.20;;;;;;;;;;5031170;28;20701;-81
2023/01/08 04:57:35;;;;;;;5.03;4.53;;;;;;;;;;5031550;28;20705;-81
2023/01/08 05:00:03;;;;;;;5.47;4.50;;;;;;;;;;5030046;28;20235;-82
2023/01/08 05:02:30;;;;;;;4.67;4.27;;;;;;;;;;5031377;28;20210;-81
2023/01/08 05:04:57;;;;;;;4.57;4.10;;;;;;;;;;5030902;28;20663;-82
2023/01/08 05:07:24;;;;;;;6.03;4.30;;;;;;;;;;5031614;28;20252;-80
2023/01/08 05:09:51;;;;;;;6.70;4.00;;;;;;;;;;5031655;28;20235;-81
2023/01/08 05:12:18;;;;;;;4.80;4.27;;;;;;;;;;5030681;28;20241;-81
2023/01/08 05:14:45;;;;;;;4.50;4.10;;;;;;;;;;5031919;28;20211;-80
2023/01/08 05:17:13;;;;;;;5.03;4.47;;;;;;;;;;5031203;28;20234;-80
2023/01/08 05:19:41;;;;;;;5.67;4.23;;;;;;;;;;5031460;28;20760;-80
2023/01/08 05:22:08;;;;;;;6.27;3.83;;;;;;;;;;5030772;28;20238;-80
2023/01/08 05:24:35;;;;;;;4.53;3.90;;;;;;;;;;5031519;28;20243;-80
2023/01/08 05:27:02;;;;;;;4.83;3.80;;;;;;;;;;5030837;28;20292;-80
2023/01/08 05:29:29;;;;;;;6.00;4.13;;;;;;;;;;5031206;28;20668;-80
2023/01/08 05:31:56;;;;;;;4.17;3.77;;;;;;;;;;5030866;28;20234;-80
2023/01/08 05:34:24;;;;;;;3.70;3.40;;;;;;;;;;5031289;28;20211;-80
2023/01/08 05:36:51;;;;;;;3.13;2.83;;;;;;;;;;5030860;28;20230;-80
2023/01/08 05:39:18;;;;;;;4.93;3.90;;;;;;;;;;5031220;28;20273;-81
2023/01/08 05:41:45;;;;;;;5.03;4.17;;;;;;;;;;5030724;28;20242;-80
2023/01/08 05:44:12;;;;;;;3.10;2.83;;;;;;;;;;5031023;28;20261;-80
2023/01/08 05:46:39;;;;;;;5.07;2.90;;;;;;;;;;5030819;28;20237;-80
2023/01/08 05:49:06;;;;;;;2.47;2.27;;;;;;;;;;5030955;28;20659;-80
2023/01/08 05:51:35;;;;;;;2.80;2.60;;;;;;;;;;5030956;28;20281;-80
2023/01/08 05:54:02;;;;;;;2.20;2.10;;;;;;;;;;5031071;28;20198;-80
2023/01/08 05:56:29;;;;;;;2.60;2.40;;;;;;;;;;5030857;28;20238;-80
2023/01/08 05:58:56;;;;;;;3.23;2.60;;;;;;;;;;5030829;28;20253;-80
2023/01/08 06:01:23;;;;;;;3.77;2.97;;;;;;;;;;5030766;28;20238;-80
2023/01/08 06:03:50;;;;;;;2.83;2.63;;;;;;;;;;5030759;28;20199;-80
2023/01/08 06:06:17;;;;;;;2.73;2.50;;;;;;;;;;5030550;28;20238;-79
2023/01/08 06:08:45;;;;;;;3.00;2.80;;;;;;;;;;5030622;28;20655;-80
2023/01/08 06:11:12;;;;;;;3.43;2.93;;;;;;;;;;5032737;28;20241;-80
2023/01/08 06:13:42;;;;;;;3.07;2.87;;;;;;;;;;5034173;28;20242;-80
2023/01/08 06:16:09;;;;;;;2.50;2.30;;;;;;;;;;5034010;28;20243;-80
2023/01/08 06:18:36;;;;;;;2.13;2.03;;;;;;;;;;5034622;28;20556;-80
2023/01/08 06:21:04;;;;;;;2.73;2.53;;;;;;;;;;5034024;28;20238;-80
2023/01/08 06:23:31;;;;;;;3.07;2.83;;;;;;;;;;5034251;28;20215;-79
2023/01/08 06:26:02;;;;;;;3.40;2.93;;;;;;;;;;5034060;28;20234;-79
2023/01/08 06:28:30;;;;;;;5.63;3.03;;;;;;;;;;5034448;28;20372;-79
2023/01/08 06:30:58;;;;;;;2.23;2.10;;;;;;;;;;5033688;28;20237;-79
2023/01/08 06:33:25;;;;;;;2.63;2.43;;;;;;;;;;5034026;28;20722;-79
2023/01/08 06:35:52;;;;;;;2.40;2.30;;;;;;;;;;5033971;28;20226;-80
2023/01/08 06:38:19;;;;;;;2.50;2.30;;;;;;;;;;5034150;28;20375;-79
2023/01/08 06:40:46;;;;;;;2.37;2.20;;;;;;;;;;5033608;28;20243;-79
2023/01/08 06:43:14;;;;;;;2.43;2.33;;;;;;;;;;5033729;28;20207;-79
2023/01/08 06:45:41;;;;;;;3.03;2.40;;;;;;;;;;5033602;28;20237;-80
2023/01/08 06:48:08;;;;;;;2.27;2.17;;;;;;;;;;5033696;28;20211;-80
2023/01/08 06:50:35;;;;;;;2.10;2.00;;;;;;;;;;5065418;23;20233;-79
2023/01/08 06:53:02;;;;;;;1.80;1.70;;;;;;;;;;5053438;28;20213;-79
2023/01/08 06:55:30;;;;;;;2.60;2.40;;;;;;;;;;5053302;28;20618;-79
2023/01/08 06:57:57;;;;;;;2.70;2.20;;;;;;;;;;5053422;28;20210;-79
2023/01/08 07:00:27;;;;;;;2.43;2.33;;;;;;;;;;5053011;28;20241;-80
2023/01/08 07:02:54;;;;;;;2.57;2.40;;;;;;;;;;5053168;28;20197;-79
2023/01/08 07:05:21;;;;;;;2.70;2.50;;;;;;;;;;5053100;28;20236;-79
2023/01/08 07:07:48;;;;;;;2.50;2.40;;;;;;;;;;5053106;28;20538;-77
2023/01/08 07:10:15;;;;;;;2.63;2.50;;;;;;;;;;5052825;28;20649;-76
2023/01/08 07:12:42;;;;;;;3.77;2.83;;;;;;;;;;5052975;28;20198;-76
2023/01/08 07:15:09;;;;;;;3.10;2.80;;;;;;;;;;5052715;28;20275;-76
2023/01/08 07:17:38;;;;;;;3.30;2.67;;;;;;;;;;5053081;28;20704;-76
2023/01/08 07:20:05;;;;;;;2.20;2.10;;;;;;;;;;5052415;28;20717;-76
2023/01/08 07:22:33;;;;;;;2.87;2.67;;;;;;;;;;5052086;28;20244;-76
2023/01/08 07:25:00;;;;;;;3.93;3.40;;;;;;;;;;5052346;28;20213;-77
2023/01/08 07:27:27;;;;;;;3.33;3.03;;;;;;;;;;5053146;28;20221;-76
2023/01/08 07:29:54;;;;;;;7.53;5.37;;;;;;;;;;5052612;28;20229;-76
2023/01/08 07:32:22;;;;;;;8.17;5.50;;;;;;;;;;5052556;28;20225;-76
2023/01/08 07:34:53;;;;;;;3.00;2.67;;;;;;;;;;5052838;28;20202;-76
2023/01/08 07:37:20;;;;;;;4.53;4.13;;;;;;;;;;5052347;28;20234;-76
2023/01/08 07:39:47;;;;;;;2.97;2.67;;;;;;;;;;5052540;28;20253;-76
2023/01/08 07:42:14;;;;;;;2.60;2.40;;;;;;;;;;5052194;28;20230;-76
2023/01/08 07:44:41;;;;;;;3.67;2.87;;;;;;;;;;5052840;28;20209;-76
2023/01/08 07:47:08;;;;;;;3.20;2.77;;;;;;;;;;5052118;28;20233;-76
2023/01/08 07:49:35;;;;;;;2.90;2.70;;;;;;;;;;5052104;28;20585;-76
2023/01/08 07:52:03;;;;;;;2.03;1.93;;;;;;;;;;5051727;28;20234;-76
2023/01/08 07:54:30;;;;;;;2.50;2.40;;;;;;;;;;5052496;28;20246;-76
2023/01/08 07:56:57;;;;;;;2.97;2.40;;;;;;;;;;5051779;28;20241;-76
2023/01/08 07:59:24;;;;;;;2.60;2.40;;;;;;;;;;5052094;28;20213;-76
2023/01/08 08:01:51;;;;;;;2.03;1.93;;;;;;;;;;5051608;28;20241;-75
2023/01/08 08:04:19;;;;;;;2.43;2.30;;;;;;;;;;5051756;28;20690;-76
2023/01/08 08:06:46;;;;;;;2.20;2.00;;;;;;;;;;5051811;28;20248;-75
2023/01/08 08:09:14;;;;;;;2.60;2.40;;;;;;;;;;5051863;28;20226;-76
2023/01/08 08:11:41;;;;;;;2.20;2.10;;;;;;;;;;5051725;28;20632;-76
2023/01/08 08:14:09;;;;;;;2.73;2.53;;;;;;;;;;5051941;28;20221;-76
2023/01/08 08:16:36;;;;;;;2.07;1.97;;;;;;;;;;5051442;28;20234;-76
2023/01/08 08:19:03;;;;;;;2.67;2.47;;;;;;;;;;5051848;28;20206;-76
2023/01/08 08:21:30;;;;;;;2.70;2.50;;;;;;;;;;5051416;28;20234;-76
2023/01/08 08:23:57;;;;;;;1.90;1.80;;;;;;;;;;5051461;28;20232;-76
2023/01/08 08:26:26;;;;;;;2.63;2.43;;;;;;;;;;5051143;28;20253;-76
2023/01/08 08:28:53;;;;;;;3.33;2.60;;;;;;;;;;5051551;28;20567;-76
2023/01/08 08:31:20;;;;;;;2.67;2.47;;;;;;;;;;5051219;28;20792;-76
2023/01/08 08:33:47;;;;;;;2.47;2.30;;;;;;;;;;5051245;28;20314;-76
2023/01/08 08:36:14;;;;;;;2.43;2.33;;;;;;;;;;5051452;28;20495;-76
2023/01/08 08:38:41;;;;;;;2.77;2.57;;;;;;;;;;5051626;28;20216;-76
2023/01/08 08:41:08;;;;;;;2.00;1.90;;;;;;;;;;5051101;28;20646;-76
2023/01/08 08:43:36;;;;;;;2.80;2.50;;;;;;;;;;5051604;28;20206;-76
2023/01/08 08:46:03;;;;;;;2.97;2.77;;;;;;;;;;5051345;28;20600;-76
2023/01/08 08:48:30;;;;;;;3.50;3.20;;;;;;;;;;5051713;28;20673;-76
2023/01/08 08:50:57;;;;;;;3.47;2.73;;;;;;;;;;5050973;28;20237;-76
2023/01/08 08:53:24;;;;;;;3.10;2.83;;;;;;;;;;5051744;28;20213;-76
2023/01/08 08:55:51;;;;;;;3.40;3.10;;;;;;;;;;5051169;28;20267;-76
2023/01/08 08:58:18;;;;;;;2.40;2.30;;;;;;;;;;5051661;28;20210;-75
2023/01/08 09:00:47;;;;;;;3.20;2.90;;;;;;;;;;5051107;28;20245;-76
2023/01/08 09:03:15;;;;;;;3.83;3.03;;;;;;;;;;5051520;28;20206;-76
2023/01/08 09:05:42;;;;;;;3.10;2.73;;;;;;;;;;5051423;28;20236;-76
2023/01/08 09:08:10;;;;;;;3.10;2.80;;;;;;;;;;5051609;28;20233;-76
2023/01/08 09:10:37;;;;;;;3.93;3.07;;;;;;;;;;5051103;28;20248;-76
2023/01/08 09:13:04;;;;;;;2.50;2.30;;;;;;;;;;5051442;28;20216;-76
2023/01/08 09:15:31;;;;;;;3.50;3.20;;;;;;;;;;5051201;28;20248;-76
2023/01/08 09:18:00;;;;;;;3.43;3.13;;;;;;;;;;5051434;28;20206;-76
2023/01/08 09:20:27;;;;;;;3.00;2.80;;;;;;;;;;5051091;28;20256;-76
2023/01/08 09:22:54;;;;;;;3.00;2.80;;;;;;;;;;5051431;28;20206;-76
2023/01/08 09:25:21;;;;;;;3.27;2.97;;;;;;;;;;5051201;28;20230;-76
2023/01/08 09:27:48;;;;;;;3.00;2.80;;;;;;;;;;5051303;28;20240;-76
2023/01/08 09:30:15;;;;;;;2.80;2.57;;;;;;;;;;5050666;28;20728;-76
2023/01/08 09:32:42;;;;;;;2.90;2.70;;;;;;;;;;5051326;28;20212;-76
2023/01/08 09:35:11;;;;;;;3.40;3.10;;;;;;;;;;5050859;28;20217;-76
2023/01/08 09:37:38;;;;;;;4.60;4.20;;;;;;;;;;5051350;28;20206;-76
2023/01/08 09:40:06;;;;;;;3.60;2.50;;;;;;;;;;5050831;28;20226;-76
2023/01/08 09:42:34;;;;;;;3.63;3.27;;;;;;;;;;5051276;28;20564;-77
2023/01/08 09:45:02;;;;;;;3.33;2.70;;;;;;;;;;5051270;28;20209;-77
2023/01/08 09:47:30;;;;;;;2.63;2.43;;;;;;;;;;5055263;28;20213;-76
2023/01/08 09:49:59;;;;;;;3.10;2.90;;;;;;;;;;5054138;28;20316;-77
2023/01/08 09:52:28;;;;;;;2.60;2.40;;;;;;;;;;5054925;28;20214;-76
2023/01/08 09:54:55;;;;;;;2.90;2.70;;;;;;;;;;5054856;28;20213;-76
2023/01/08 09:57:22;;;;;;;3.03;2.60;;;;;;;;;;5054778;28;20591;-76
2023/01/08 09:59:50;;;;;;;3.53;3.23;;;;;;;;;;5054970;28;20226;-75
2023/01/08 10:02:17;;;;;;;3.40;3.10;;;;;;;;;;5053926;28;20230;-76
2023/01/08 10:04:45;;;;;;;2.17;2.07;;;;;;;;;;5054820;28;20723;-76
2023/01/08 10:07:17;;;;;;;2.63;2.43;;;;;;;;;;5054129;28;20244;-76
2023/01/08 10:09:46;;;;;;;2.40;2.30;;;;;;;;;;5054573;28;20329;-76
2023/01/08 10:12:14;;;;;;;2.63;2.40;;;;;;;;;;5053943;28;20238;-76
2023/01/08 10:14:46;;;;;;;2.30;2.20;;;;;;;;;;5054607;28;20202;-76
2023/01/08 10:17:17;;;;;;;3.33;3.03;;;;;;;;;;5053906;28;20238;-76
2023/01/08 10:19:45;;;;;;;2.90;2.60;;;;;;;;;;5054281;28;20229;-76
2023/01/08 10:22:13;;;;;;;2.27;2.17;;;;;;;;;;5053313;28;20244;-76
2023/01/08 10:24:42;;;;;;;2.83;2.63;;;;;;;;;;5054401;28;20248;-76
2023/01/08 10:27:13;;;;;;;3.70;2.80;;;;;;;;;;5053638;28;20276;-76
2023/01/08 10:29:41;;;;;;;2.90;2.60;;;;;;;;;;5054305;28;20226;-76
2023/01/08 10:32:10;;;;;;;3.13;2.50;;;;;;;;;;5053429;28;20238;-76
2023/01/08 10:34:43;;;;;;;2.87;2.67;;;;;;;;;;5054546;28;20229;-76
2023/01/08 10:37:15;;;;;;;2.23;2.13;;;;;;;;;;5053509;28;20242;-76
2023/01/08 10:39:46;;;;;;;2.20;2.10;;;;;;;;;;5053994;28;20739;-76
2023/01/08 10:42:15;;;;;;;2.43;2.20;;;;;;;;;;5053475;28;20238;-76
2023/01/08 10:44:53;;;;;;;2.27;2.17;;;;;;;;;;5054195;28;20202;-76
2023/01/08 10:47:20;;;;;;;3.67;1.90;;;;;;;;;;5053495;28;20244;-76
2023/01/08 10:49:48;;;;;;;1.93;1.83;;;;;;;;;;5053599;28;20222;-76
2023/01/08 10:52:24;;;;;;;1.57;1.57;;;;;;;;;;5053104;28;20233;-76
2023/01/08 10:54:51;;;;;;;3.93;2.40;;;;;;;;;;5053910;28;20673;-76
2023/01/08 10:57:23;;;;;;;2.60;2.40;;;;;;;;;;5053197;28;20240;-76
2023/01/08 10:59:50;;;;;;;2.67;2.47;;;;;;;;;;5053505;28;20222;-76
2023/01/08 11:02:21;;;;;;;2.60;2.40;;;;;;;;;;5052739;28;20585;-76
2023/01/08 11:04:51;;;;;;;2.10;2.00;;;;;;;;;;5053669;28;20194;-76
2023/01/08 11:07:20;;;;;;;2.10;2.00;;;;;;;;;;5052810;28;20657;-76
2023/01/08 11:09:48;;;;;;;2.80;2.50;;;;;;;;;;5053201;28;20804;-76
2023/01/08 11:12:26;;;;;;;2.40;2.30;;;;;;;;;;5052812;28;20604;-76
2023/01/08 11:14:53;;;;;;;2.43;2.23;;;;;;;;;;5053608;28;20220;-76
2023/01/08 11:17:20;;;;;;;2.40;2.30;;;;;;;;;;5052958;28;20264;-76
2023/01/08 11:19:47;;;;;;;1.90;1.80;;;;;;;;;;5053376;28;20214;-76
2023/01/08 11:22:18;;;;;;;2.27;2.17;;;;;;;;;;5052425;28;20241;-76
2023/01/08 11:24:46;;;;;;;1.63;1.60;;;;;;;;;;5053301;28;20210;-76
2023/01/08 11:27:16;;;;;;;2.27;2.17;;;;;;;;;;5052500;28;20654;-75
2023/01/08 11:29:47;;;;;;;2.60;2.43;;;;;;;;;;5053436;28;20257;-76
2023/01/08 11:32:27;;;;;;;2.40;2.30;;;;;;;;;;5052511;28;20234;-76
2023/01/08 11:34:56;;;;;;;2.43;2.30;;;;;;;;;;5052976;28;20209;-76
2023/01/08 11:37:25;;;;;;;2.33;2.13;;;;;;;;;;5052765;28;20229;-75
2023/01/08 11:39:52;;;;;;;2.43;2.33;;;;;;;;;;5052843;28;20236;-77
2023/01/08 11:42:39;;;;;;;3.77;3.37;;;;;;;;;;5052158;28;20355;-76
2023/01/08 11:45:16;;;;;;;2.20;2.10;;;;;;;;;;5052523;28;20186;-76
2023/01/08 11:47:54;;;;;;;2.33;2.13;;;;;;;;;;5052825;28;20202;-76
2023/01/08 11:50:25;;;;;;;2.13;1.93;;;;;;;;;;5051884;28;20233;-76
2023/01/08 11:53:08;;;;;;;2.83;2.07;;;;;;;;;;5052318;28;20213;-76
2023/01/08 11:55:44;;;;;;;1.60;1.50;;;;;;;;;;5052108;28;20226;-76
2023/01/08 11:58:21;;;;;;;1.90;1.80;;;;;;;;;;5052412;28;20297;-76
2023/01/08 12:01:00;;;;;;;2.00;1.90;;;;;;;;;;5052206;28;20241;-76
2023/01/08 12:03:31;;;;;;;1.80;1.70;;;;;;;;;;5052262;28;20206;-76
2023/01/08 12:06:04;;;;;;;1.90;1.80;;;;;;;;;;5051935;28;20233;-76
2023/01/08 12:08:38;;;;;;;1.77;1.67;;;;;;;;;;5052149;28;20210;-76
2023/01/08 12:11:10;;;;;;;2.20;2.00;;;;;;;;;;5051801;28;20237;-76
2023/01/08 12:13:46;;;;;;;2.67;2.47;;;;;;;;;;5052164;28;20227;-76
2023/01/08 12:16:22;;;;;;;1.53;1.53;;;;;;;;;;5051744;28;20242;-76
2023/01/08 12:18:56;;;;;;;1.37;1.33;;;;;;;;;;5052252;28;20198;-76
2023/01/08 12:21:28;;;;;;;3.80;2.13;;;;;;;;;;5051518;28;20599;-76
2023/01/08 12:24:07;;;;;;;2.80;2.20;;;;;;;;;;5051903;28;20206;-76
2023/01/08 12:26:39;;;;;;;1.43;1.43;;;;;;;;;;5051852;28;20236;-76
2023/01/08 12:29:24;;;;;;;1.47;1.40;;;;;;;;;;5051943;28;20245;-76
2023/01/08 12:32:08;;;;;;;2.17;2.00;;;;;;;;;;5041730;28;20284;-76
2023/01/08 12:34:39;;;;;;;2.10;1.50;;;;;;;;;;5052169;28;20209;-77
2023/01/08 12:37:11;;;;;;;1.47;1.47;;;;;;;;;;5051373;28;20241;-76
2023/01/08 12:39:43;;;;;;;1.60;1.50;;;;;;;;;;5051768;28;20226;-76
2023/01/08 12:42:13;;;;;;;1.70;1.60;;;;;;;;;;5051159;28;20237;-76
2023/01/08 12:44:41;;;;;;;1.80;1.70;;;;;;;;;;5051802;28;20206;-76
2023/01/08 12:47:14;;;;;;;2.33;1.90;;;;;;;;;;5051105;28;20234;-76
2023/01/08 12:49:47;;;;;;;1.47;1.43;;;;;;;;;;5051992;28;20237;-76
2023/01/08 12:52:16;;;;;;;2.20;1.93;;;;;;;;;;5050957;28;20317;-76
2023/01/08 12:54:49;;;;;;;1.40;1.40;;;;;;;;;;5051639;28;20201;-76
2023/01/08 12:57:19;;;;;;;1.53;1.43;;;;;;;;;;5051452;28;20229;-76
2023/01/08 12:59:49;;;;;;;1.93;1.80;;;;;;;;;;5051554;28;20226;-76
2023/01/08 13:02:27;;;;;;;2.73;2.30;;;;;;;;;;5050674;28;20309;-76
2023/01/08 13:04:55;;;;;;;2.40;1.80;;;;;;;;;;5051324;28;20639;-76
2023/01/08 13:07:23;;;;;;;2.87;2.27;;;;;;;;;;5051366;28;20585;-76
2023/01/08 13:09:57;;;;;;;2.53;2.30;;;;;;;;;;5051469;28;20226;-76
2023/01/08 13:12:28;;;;;;;1.77;1.67;;;;;;;;;;5051159;28;20725;-76
2023/01/08 13:14:56;;;;;;;1.90;1.80;;;;;;;;;;5051428;28;20202;-76
2023/01/08 13:17:24;;;;;;;1.90;1.63;;;;;;;;;;5051289;28;20275;-76
2023/01/08 13:19:53;;;;;;;1.87;1.70;;;;;;;;;;5051357;28;20744;-76
2023/01/08 13:22:25;;;;;;;1.80;1.70;;;;;;;;;;5054909;28;20241;-76
2023/01/08 13:24:52;;;;;;;1.30;1.30;;;;;;;;;;5055667;28;20213;-76
2023/01/08 13:27:28;;;;;;;1.90;1.80;;;;;;;;;;5055121;28;20237;-76
2023/01/08 13:29:56;;;;;;;1.60;1.50;;;;;;;;;;5055556;28;20225;-76
2023/01/08 13:32:26;;;;;;;1.90;1.80;;;;;;;;;;5054975;28;20230;-76
2023/01/08 13:35:03;;;;;;;2.00;1.90;;;;;;;;;;5054989;28;20613;-77
2023/01/08 13:37:30;;;;;;;1.70;1.60;;;;;;;;;;5055201;28;20222;-76
2023/01/08 13:39:57;;;;;;;1.93;1.73;;;;;;;;;;5054781;28;20230;-77
2023/01/08 13:42:27;;;;;;;2.10;2.00;;;;;;;;;;5054871;28;20198;-77
2023/01/08 13:44:58;;;;;;;3.63;2.10;;;;;;;;;;5055247;28;20213;-76
2023/01/08 13:47:29;;;;;;;2.27;2.00;;;;;;;;;;5054854;28;20225;-77
2023/01/08 13:49:57;;;;;;;2.50;2.30;;;;;;;;;;5054264;28;20288;-77
2023/01/08 13:52:30;;;;;;;1.90;1.80;;;;;;;;;;5054948;28;20225;-76
2023/01/08 13:54:57;;;;;;;2.20;2.00;;;;;;;;;;5054375;28;20206;-77
2023/01/08 13:57:25;;;;;;;2.87;2.13;;;;;;;;;;5055031;28;20214;-76
2023/01/08 13:59:54;;;;;;;2.20;2.00;;;;;;;;;;5054563;28;20240;-76
2023/01/08 14:02:26;;;;;;;2.50;2.30;;;;;;;;;;5054025;28;20245;-76
2023/01/08 14:04:55;;;;;;;2.10;2.00;;;;;;;;;;5054546;28;20210;-77
2023/01/08 14:07:23;;;;;;;2.80;2.60;;;;;;;;;;5054587;28;20229;-77
2023/01/08 14:09:50;;;;;;;1.90;1.80;;;;;;;;;;5054367;28;20272;-76
2023/01/08 14:12:19;;;;;;;1.80;1.70;;;;;;;;;;5053859;28;20234;-77
2023/01/08 14:14:48;;;;;;;1.80;1.70;;;;;;;;;;5054947;28;20205;-76
2023/01/08 14:17:16;;;;;;;1.67;1.57;;;;;;;;;;5053905;28;20229;-76
2023/01/08 14:19:44;;;;;;;2.23;1.90;;;;;;;;;;5054352;28;20230;-77
2023/01/08 14:22:17;;;;;;;1.90;1.80;;;;;;;;;;5053490;28;20234;-77
2023/01/08 14:24:44;;;;;;;2.33;2.00;;;;;;;;;;5054529;28;20229;-77
2023/01/08 14:27:20;;;;;;;2.17;2.07;;;;;;;;;;5053751;28;20272;-77
2023/01/08 14:29:47;;;;;;;2.20;2.00;;;;;;;;;;5054191;28;20233;-77
2023/01/08 14:32:17;;;;;;;2.20;1.80;;;;;;;;;;5052883;28;20233;-76
2023/01/08 14:34:44;;;;;;;2.20;2.00;;;;;;;;;;5054134;28;20194;-77
2023/01/08 14:37:15;;;;;;;1.80;1.70;;;;;;;;;;5053643;28;20241;-77
2023/01/08 14:39:42;;;;;;;2.93;2.33;;;;;;;;;;5054054;28;20226;-77
2023/01/08 14:44:59;;;;;;;3.33;2.47;;;;;;;;;;5053719;28;20209;-78
2023/01/08 14:47:30;;;;;;;1.77;1.67;;;;;;;;;;5053901;28;20214;-77
2023/01/08 14:49:57;;;;;;;2.07;1.90;;;;;;;;;;5053117;28;20233;-79
2023/01/08 14:52:25;;;;;;;2.43;2.30;;;;;;;;;;5053612;28;20222;-77
2023/01/08 14:54:54;;;;;;;1.67;1.60;;;;;;;;;;5053916;28;20213;-78